createdAt,value
2023-03-25T00:00:58.000Z,15.10
2023-03-25T00:03:27.451Z,15.10
2023-03-25T00:05:55.855Z,15.10
2023-03-25T00:08:25.104Z,15.10
2023-03-25T00:10:55.976Z,15.10
2023-03-25T00:13:24.651Z,15.20
2023-03-25T00:15:53.803Z,15.20
2023-03-25T00:18:22.843Z,15.20
2023-03-25T00:20:51.469Z,15.20
2023-03-25T00:23:20.550Z,15.30
2023-03-25T00:25:50.086Z,15.20
2023-03-25T00:28:20.223Z,15.30
2023-03-25T00:30:48.340Z,15.30
2023-03-25T00:33:18.204Z,15.30
2023-03-25T00:35:49.617Z,15.40
2023-03-25T00:38:18.358Z,15.40
2023-03-25T00:40:48.680Z,15.40
2023-03-25T00:43:17.020Z,15.40
2023-03-25T00:45:46.637Z,15.40
2023-03-25T00:48:14.765Z,15.40
2023-03-25T00:50:42.982Z,15.40
2023-03-25T00:53:11.097Z,15.40
2023-03-25T00:55:39.250Z,15.40
2023-03-25T00:58:07.502Z,15.30
2023-03-25T01:00:36.134Z,15.30
2023-03-25T01:03:05.786Z,15.30
2023-03-25T01:05:34.016Z,15.30
2023-03-25T01:08:02.202Z,15.30
2023-03-25T01:10:30.490Z,15.30
2023-03-25T01:12:58.713Z,15.30
2023-03-25T01:15:26.928Z,15.20
2023-03-25T01:17:55.407Z,15.20
2023-03-25T01:20:26.715Z,15.20
2023-03-25T01:22:54.962Z,15.20
2023-03-25T01:25:23.144Z,15.20
2023-03-25T01:27:51.385Z,15.20
2023-03-25T01:30:19.746Z,15.10
2023-03-25T01:32:48.178Z,15.10
2023-03-25T01:35:16.718Z,15.10
2023-03-25T01:37:46.931Z,15.10
2023-03-25T01:40:20.371Z,15.00
2023-03-25T01:42:48.532Z,15.00
2023-03-25T01:45:26.566Z,15.00
2023-03-25T01:48:01.448Z,15.00
2023-03-25T01:50:30.171Z,14.90
2023-03-25T01:53:03.687Z,14.90
2023-03-25T01:55:34.861Z,14.80
2023-03-25T01:58:07.530Z,14.80
2023-03-25T02:00:35.815Z,14.80
2023-03-25T02:03:04.423Z,14.80
2023-03-25T02:05:37.516Z,14.70
2023-03-25T02:08:09.695Z,14.70
2023-03-25T02:10:39.521Z,14.70
2023-03-25T02:13:08.819Z,14.60
2023-03-25T02:15:52.831Z,14.60
2023-03-25T02:18:34.154Z,14.60
2023-03-25T02:21:31.211Z,14.50
2023-03-25T02:24:35.458Z,14.50
2023-03-25T02:27:27.303Z,14.50
2023-03-25T02:30:44.317Z,14.40
2023-03-25T02:33:48.319Z,14.40
2023-03-25T02:36:50.445Z,14.40
2023-03-25T02:39:23.476Z,14.30
2023-03-25T02:41:56.929Z,14.30
2023-03-25T02:44:32.327Z,14.30
2023-03-25T02:47:04.051Z,14.30
2023-03-25T02:49:36.099Z,14.30
2023-03-25T02:52:12.210Z,14.20
2023-03-25T02:54:45.168Z,14.20
2023-03-25T02:57:16.810Z,14.20
2023-03-25T02:59:46.743Z,14.20
2023-03-25T03:02:17.513Z,14.20
2023-03-25T03:04:51.055Z,14.10
2023-03-25T03:07:26.138Z,14.20
2023-03-25T03:10:06.024Z,14.10
2023-03-25T03:12:54.490Z,14.10
2023-03-25T03:15:29.230Z,14.10
2023-03-25T03:18:09.897Z,14.10
2023-03-25T03:20:43.644Z,14.00
2023-03-25T03:23:16.033Z,14.00
2023-03-25T03:25:51.295Z,14.00
2023-03-25T03:28:29.040Z,14.00
2023-03-25T03:31:06.958Z,14.00
2023-03-25T03:33:41.014Z,14.00
2023-03-25T03:36:13.657Z,14.00
2023-03-25T03:38:46.380Z,13.90
2023-03-25T03:41:20.800Z,13.90
2023-03-25T03:43:52.437Z,13.90
2023-03-25T03:46:24.591Z,13.90
2023-03-25T03:48:56.440Z,13.90
2023-03-25T03:51:29.767Z,13.80
2023-03-25T03:54:00.650Z,13.80
2023-03-25T03:56:37.185Z,13.80
2023-03-25T03:59:09.917Z,13.80
2023-03-25T04:01:46.112Z,13.70
2023-03-25T04:04:16.795Z,13.70
2023-03-25T04:06:50.722Z,13.70
2023-03-25T04:09:27.605Z,13.70
2023-03-25T04:12:01.981Z,13.70
2023-03-25T04:14:30.164Z,13.70
2023-03-25T04:16:59.790Z,13.60
2023-03-25T04:19:28.433Z,13.60
2023-03-25T04:21:56.659Z,13.60
2023-03-25T04:24:25.207Z,13.60
2023-03-25T04:26:53.403Z,13.60
2023-03-25T04:29:22.944Z,13.60
2023-03-25T04:31:54.767Z,13.50
2023-03-25T04:34:23.542Z,13.50
2023-03-25T04:36:51.962Z,13.50
2023-03-25T04:39:22.718Z,13.40
2023-03-25T04:41:51.238Z,13.40
2023-03-25T04:44:20.833Z,13.40
2023-03-25T04:46:50.528Z,13.40
2023-03-25T04:49:21.424Z,13.40
2023-03-25T04:51:51.677Z,13.40
2023-03-25T04:54:21.016Z,13.30
2023-03-25T04:56:49.956Z,13.30
2023-03-25T04:59:18.624Z,13.30
2023-03-25T05:01:47.410Z,13.30
2023-03-25T05:04:18.663Z,13.30
2023-03-25T05:06:49.363Z,13.30
2023-03-25T05:09:20.225Z,13.30
2023-03-25T05:11:49.375Z,13.20
2023-03-25T05:14:18.998Z,13.30
2023-03-25T05:16:47.924Z,13.20
2023-03-25T05:19:19.028Z,13.20
2023-03-25T05:21:48.640Z,13.20
2023-03-25T05:24:16.889Z,13.20
2023-03-25T05:26:45.013Z,13.10
2023-03-25T05:29:15.767Z,13.10
2023-03-25T05:31:45.796Z,13.10
2023-03-25T05:34:14.750Z,13.10
2023-03-25T05:36:44.751Z,13.10
2023-03-25T05:39:12.995Z,13.20
2023-03-25T05:41:41.620Z,13.20
2023-03-25T05:44:15.602Z,13.20
2023-03-25T05:46:44.173Z,13.20
2023-03-25T05:49:12.438Z,13.30
2023-03-25T05:51:40.630Z,13.30
2023-03-25T05:54:11.729Z,13.30
2023-03-25T05:56:41.513Z,13.30
2023-03-25T05:59:10.442Z,13.40
2023-03-25T06:01:38.863Z,13.40
2023-03-25T06:04:10.106Z,13.40
2023-03-25T06:06:40.165Z,13.50
2023-03-25T06:09:10.312Z,13.50
2023-03-25T06:11:39.137Z,13.60
2023-03-25T06:14:08.182Z,13.60
2023-03-25T06:16:36.928Z,13.60
2023-03-25T06:19:05.268Z,13.70
2023-03-25T06:21:34.986Z,13.70
2023-03-25T06:24:03.995Z,13.80
2023-03-25T06:26:33.725Z,13.80
2023-03-25T06:29:02.689Z,13.90
2023-03-25T06:31:34.183Z,13.90
2023-03-25T06:34:03.126Z,14.00
2023-03-25T06:36:31.633Z,14.00
2023-03-25T06:39:00.019Z,14.00
2023-03-25T06:41:28.225Z,14.10
2023-03-25T06:43:58.173Z,14.10
2023-03-25T06:46:26.435Z,14.20
2023-03-25T06:48:54.623Z,14.20
2023-03-25T06:51:23.875Z,14.20
2023-03-25T06:53:52.299Z,14.30
2023-03-25T06:56:20.653Z,14.30
2023-03-25T06:58:48.812Z,14.30
2023-03-25T07:01:18.672Z,14.30
2023-03-25T07:03:47.021Z,14.30
2023-03-25T07:06:18.360Z,14.40
2023-03-25T07:08:46.567Z,14.40
2023-03-25T07:11:15.699Z,14.40
2023-03-25T07:13:43.991Z,14.40
2023-03-25T07:16:14.558Z,14.40
2023-03-25T07:18:44.387Z,14.40
2023-03-25T07:21:12.664Z,14.40
2023-03-25T07:23:40.935Z,14.50
2023-03-25T07:26:09.591Z,14.50
2023-03-25T07:28:39.086Z,14.50
2023-03-25T07:31:09.776Z,14.50
2023-03-25T07:33:38.115Z,14.50
2023-03-25T07:36:10.040Z,14.60
2023-03-25T07:38:38.424Z,14.60
2023-03-25T07:41:07.899Z,14.60
2023-03-25T07:43:36.048Z,14.60
2023-03-25T07:46:04.228Z,14.60
2023-03-25T07:48:32.714Z,14.70
2023-03-25T07:51:01.044Z,14.70
2023-03-25T07:53:30.693Z,14.70
2023-03-25T07:55:58.995Z,14.70
2023-03-25T07:58:27.368Z,14.80
2023-03-25T08:00:58.372Z,14.80
2023-03-25T08:03:28.142Z,14.80
2023-03-25T08:05:56.561Z,14.80
2023-03-25T08:08:24.766Z,14.90
2023-03-25T08:10:54.291Z,14.90
2023-03-25T08:13:22.644Z,15.00
2023-03-25T08:15:51.332Z,15.00
2023-03-25T08:18:19.846Z,15.00
2023-03-25T08:20:49.506Z,15.10
2023-03-25T08:23:19.608Z,15.10
2023-03-25T08:25:50.453Z,15.20
2023-03-25T08:28:23.273Z,15.20
2023-03-25T08:30:55.124Z,15.20
2023-03-25T08:33:27.305Z,15.20
2023-03-25T08:35:59.069Z,15.30
2023-03-25T08:38:34.287Z,15.30
2023-03-25T08:41:03.125Z,15.30
2023-03-25T08:43:32.790Z,15.40
2023-03-25T08:46:01.107Z,15.40
2023-03-25T08:48:29.372Z,15.50
2023-03-25T08:50:57.826Z,15.50
2023-03-25T08:53:26.779Z,15.60
2023-03-25T08:55:55.959Z,15.60
2023-03-25T08:58:24.598Z,15.70
2023-03-25T09:00:56.458Z,15.70
2023-03-25T09:03:27.085Z,15.80
2023-03-25T09:05:55.414Z,15.90
2023-03-25T09:08:24.346Z,15.90
2023-03-25T09:10:52.545Z,16.00
2023-03-25T09:13:20.694Z,16.00
2023-03-25T09:15:48.952Z,16.20
2023-03-25T09:18:18.898Z,16.20
2023-03-25T09:20:47.730Z,16.30
2023-03-25T09:23:16.161Z,16.50
2023-03-25T09:25:44.591Z,16.50
2023-03-25T09:28:12.681Z,16.60
2023-03-25T09:30:41.279Z,16.70
2023-03-25T09:33:09.648Z,16.70
2023-03-25T09:35:40.766Z,16.80
2023-03-25T09:38:09.005Z,16.90
2023-03-25T09:40:37.227Z,17.00
2023-03-25T09:43:15.765Z,17.00
2023-03-25T09:45:47.145Z,17.10
2023-03-25T09:48:27.193Z,17.20
2023-03-25T09:50:59.300Z,17.40
2023-03-25T09:53:33.056Z,17.40
2023-03-25T09:56:02.220Z,17.50
2023-03-25T09:58:38.622Z,17.60
2023-03-25T10:01:26.976Z,17.80
2023-03-25T10:04:04.158Z,17.80
2023-03-25T10:06:36.821Z,17.80
2023-03-25T10:09:31.035Z,17.80
2023-03-25T10:12:06.214Z,17.90
2023-03-25T10:14:45.969Z,18.10
2023-03-25T10:17:18.340Z,18.20
2023-03-25T10:19:54.937Z,18.20
2023-03-25T10:22:33.374Z,18.30
2023-03-25T10:25:04.765Z,18.30
2023-03-25T10:27:36.709Z,18.30
2023-03-25T10:30:14.280Z,18.40
2023-03-25T10:32:45.382Z,18.30
2023-03-25T10:35:19.553Z,18.30
2023-03-25T10:37:52.876Z,18.40
2023-03-25T10:40:25.432Z,18.50
2023-03-25T10:43:05.162Z,18.60
2023-03-25T10:45:35.149Z,18.70
2023-03-25T10:48:11.011Z,18.70
2023-03-25T10:50:41.493Z,18.70
2023-03-25T10:53:20.309Z,18.70
2023-03-25T10:55:55.664Z,18.80
2023-03-25T10:58:24.593Z,18.80
2023-03-25T11:00:52.691Z,18.70
2023-03-25T11:03:26.272Z,18.80
2023-03-25T11:05:55.313Z,18.80
2023-03-25T11:08:25.794Z,18.80
2023-03-25T11:10:57.845Z,18.90
2023-03-25T11:13:27.863Z,19.00
2023-03-25T11:15:59.849Z,19.10
2023-03-25T11:18:31.112Z,19.00
2023-03-25T11:21:04.025Z,19.10
2023-03-25T11:23:35.947Z,19.20
2023-03-25T11:26:07.839Z,19.20
2023-03-25T11:28:42.756Z,19.20
2023-03-25T11:31:16.688Z,19.20
2023-03-25T11:33:46.780Z,19.20
2023-03-25T11:36:24.085Z,19.20
2023-03-25T11:39:01.681Z,19.20
2023-03-25T11:41:35.560Z,19.20
2023-03-25T11:44:07.065Z,19.30
2023-03-25T11:46:42.450Z,19.30
2023-03-25T11:49:12.595Z,19.30
2023-03-25T11:51:41.180Z,19.30
2023-03-25T11:54:14.513Z,19.40
2023-03-25T11:56:45.542Z,19.40
2023-03-25T11:59:22.695Z,19.40
2023-03-25T12:01:52.530Z,19.50
2023-03-25T12:04:22.324Z,19.50
2023-03-25T12:06:59.639Z,19.50
2023-03-25T12:09:31.485Z,19.50
2023-03-25T12:12:28.723Z,19.60
2023-03-25T12:15:08.364Z,19.60
2023-03-25T12:17:50.389Z,19.60
2023-03-25T12:20:26.830Z,19.70
2023-03-25T12:23:02.358Z,19.70
2023-03-25T12:25:43.134Z,19.70
2023-03-25T12:28:33.373Z,19.70
2023-03-25T12:31:11.324Z,19.70
2023-03-25T12:33:51.677Z,19.90
2023-03-25T12:36:40.697Z,19.90
2023-03-25T12:39:35.654Z,19.90
2023-03-25T12:42:33.493Z,19.90
2023-03-25T12:45:24.460Z,20.00
2023-03-25T12:47:57.664Z,20.00
2023-03-25T12:50:35.702Z,20.00
2023-03-25T12:53:20.200Z,20.00
2023-03-25T12:56:01.292Z,20.00
2023-03-25T12:58:50.128Z,20.00
2023-03-25T13:01:30.242Z,20.10
2023-03-25T13:04:18.796Z,20.20
2023-03-25T13:06:54.933Z,20.20
2023-03-25T13:09:29.116Z,20.20
2023-03-25T13:12:03.949Z,20.20
2023-03-25T13:14:37.582Z,20.30
2023-03-25T13:17:09.298Z,20.30
2023-03-25T13:19:42.667Z,20.30
2023-03-25T13:22:18.305Z,20.40
2023-03-25T13:24:52.142Z,20.50
2023-03-25T13:27:20.760Z,20.40
2023-03-25T13:29:55.178Z,20.40
2023-03-25T13:32:26.583Z,20.40
2023-03-25T13:34:58.576Z,20.40
2023-03-25T13:37:32.587Z,20.40
2023-03-25T13:40:24.253Z,20.40
2023-03-25T13:42:57.898Z,20.50
2023-03-25T13:45:30.881Z,20.50
2023-03-25T13:48:07.048Z,20.60
2023-03-25T13:50:36.922Z,20.60
2023-03-25T13:53:11.484Z,20.60
2023-03-25T13:55:44.979Z,20.60
2023-03-25T13:58:37.651Z,20.70
2023-03-25T14:01:48.100Z,20.70
2023-03-25T14:05:04.034Z,20.80
2023-03-25T14:08:04.702Z,20.70
2023-03-25T14:10:51.331Z,20.80
2023-03-25T14:13:24.240Z,20.80
2023-03-25T14:15:59.123Z,20.80
2023-03-25T14:18:31.929Z,20.80
2023-03-25T14:21:16.821Z,20.90
2023-03-25T14:23:45.203Z,20.90
2023-03-25T14:26:13.806Z,20.80
2023-03-25T14:28:44.881Z,20.80
2023-03-25T14:31:31.114Z,20.80
2023-03-25T14:34:25.556Z,20.90
2023-03-25T14:37:28.933Z,20.90
2023-03-25T14:40:00.356Z,20.90
2023-03-25T14:42:44.937Z,20.90
2023-03-25T14:45:42.310Z,20.90
2023-03-25T14:48:26.279Z,20.90
2023-03-25T14:51:16.393Z,20.90
2023-03-25T14:53:53.335Z,20.90
2023-03-25T14:56:25.761Z,20.90
2023-03-25T14:59:00.113Z,21.00
2023-03-25T15:01:32.813Z,21.00
2023-03-25T15:04:15.655Z,21.00
2023-03-25T15:06:44.515Z,21.00
2023-03-25T15:09:17.537Z,21.00
2023-03-25T15:11:54.122Z,21.00
2023-03-25T15:14:26.501Z,21.00
2023-03-25T15:17:01.048Z,21.00
2023-03-25T15:19:29.444Z,21.00
2023-03-25T15:22:20.004Z,20.90
2023-03-25T15:24:56.681Z,20.90
2023-03-25T15:27:57.477Z,20.90
2023-03-25T15:30:53.537Z,20.90
2023-03-25T15:33:37.066Z,21.00
2023-03-25T15:36:21.174Z,20.90
2023-03-25T15:39:09.575Z,20.90
2023-03-25T15:42:27.698Z,20.90
2023-03-25T15:45:09.747Z,20.90
2023-03-25T15:47:55.136Z,20.90
2023-03-25T15:50:35.234Z,20.90
2023-03-25T15:53:35.824Z,20.80
2023-03-25T15:56:14.633Z,20.80
2023-03-25T15:58:51.523Z,20.80
2023-03-25T16:01:25.924Z,20.80
2023-03-25T16:04:00.882Z,20.80
2023-03-25T16:06:30.840Z,20.70
2023-03-25T16:09:00.487Z,20.70
2023-03-25T16:11:29.881Z,20.70
2023-03-25T16:14:18.316Z,20.70
2023-03-25T16:16:50.649Z,20.70
2023-03-25T16:19:22.518Z,20.60
2023-03-25T16:21:52.863Z,20.60
2023-03-25T16:24:25.218Z,20.60
2023-03-25T16:26:53.891Z,20.50
2023-03-25T16:29:25.821Z,20.50
2023-03-25T16:31:57.641Z,20.50
2023-03-25T16:34:26.929Z,20.40
2023-03-25T16:36:56.197Z,20.40
2023-03-25T16:39:26.074Z,20.40
2023-03-25T16:42:02.252Z,20.30
2023-03-25T16:44:31.888Z,20.30
2023-03-25T16:47:02.034Z,20.30
2023-03-25T16:49:33.647Z,20.30
2023-03-25T16:52:03.870Z,20.20
2023-03-25T16:54:38.328Z,20.10
2023-03-25T16:57:08.388Z,20.10
2023-03-25T16:59:38.916Z,20.00
2023-03-25T17:02:25.510Z,20.00
2023-03-25T17:04:58.123Z,20.00
2023-03-25T17:07:28.866Z,19.90
2023-03-25T17:10:00.104Z,19.90
2023-03-25T17:12:29.910Z,19.80
2023-03-25T17:15:06.783Z,19.80
2023-03-25T17:17:41.579Z,19.80
2023-03-25T17:20:19.150Z,19.70
2023-03-25T17:23:00.295Z,19.70
2023-03-25T17:25:32.224Z,19.60
2023-03-25T17:28:08.228Z,19.60
2023-03-25T17:30:45.848Z,19.50
2023-03-25T17:33:19.426Z,19.50
2023-03-25T17:35:53.936Z,19.50
2023-03-25T17:38:27.771Z,19.50
2023-03-25T17:41:00.977Z,19.50
2023-03-25T17:43:31.961Z,19.40
2023-03-25T17:46:02.804Z,19.30
2023-03-25T17:48:30.931Z,19.30
2023-03-25T17:51:00.291Z,19.20
2023-03-25T17:53:28.543Z,19.10
2023-03-25T17:55:59.155Z,19.00
2023-03-25T17:58:27.490Z,19.00
2023-03-25T18:00:56.190Z,19.00
2023-03-25T18:03:30.602Z,19.00
2023-03-25T18:06:00.848Z,18.90
2023-03-25T18:08:29.973Z,18.90
2023-03-25T18:10:58.926Z,18.80
2023-03-25T18:13:27.342Z,18.70
2023-03-25T18:15:56.780Z,18.70
2023-03-25T18:18:27.781Z,18.60
2023-03-25T18:20:57.024Z,18.60
2023-03-25T18:23:25.310Z,18.50
2023-03-25T18:25:53.731Z,18.40
2023-03-25T18:28:22.066Z,18.40
2023-03-25T18:30:54.177Z,18.30
2023-03-25T18:33:23.376Z,18.20
2023-03-25T18:35:55.997Z,18.20
2023-03-25T18:38:25.676Z,18.10
2023-03-25T18:40:54.697Z,18.10
2023-03-25T18:43:23.341Z,18.10
2023-03-25T18:45:51.680Z,18.10
2023-03-25T18:48:21.750Z,18.00
2023-03-25T18:50:54.799Z,18.00
2023-03-25T18:53:23.947Z,17.90
2023-03-25T18:55:52.839Z,17.90
2023-03-25T18:58:22.673Z,17.90
2023-03-25T19:00:52.410Z,17.80
2023-03-25T19:03:31.311Z,17.80
2023-03-25T19:06:02.795Z,17.70
2023-03-25T19:08:31.106Z,17.70
2023-03-25T19:11:11.748Z,17.60
2023-03-25T19:13:47.840Z,17.60
2023-03-25T19:16:16.518Z,17.60
2023-03-25T19:18:44.908Z,17.50
2023-03-25T19:21:18.218Z,17.50
2023-03-25T19:23:46.557Z,17.40
2023-03-25T19:26:14.950Z,17.40
2023-03-25T19:28:43.158Z,17.40
2023-03-25T19:31:13.512Z,17.40
2023-03-25T19:33:41.798Z,17.40
2023-03-25T19:36:15.596Z,17.40
2023-03-25T19:38:45.743Z,17.30
2023-03-25T19:41:15.650Z,17.30
2023-03-25T19:43:43.877Z,17.30
2023-03-25T19:46:12.808Z,17.30
2023-03-25T19:48:41.057Z,17.20
2023-03-25T19:51:09.339Z,17.20
2023-03-25T19:53:37.662Z,17.20
2023-03-25T19:56:07.651Z,17.20
2023-03-25T19:58:35.888Z,17.10
2023-03-25T20:01:04.166Z,17.10
2023-03-25T20:03:33.036Z,17.10
2023-03-25T20:06:02.799Z,17.10
2023-03-25T20:08:32.004Z,17.10
2023-03-25T20:11:01.105Z,17.10
2023-03-25T20:13:30.900Z,17.10
2023-03-25T20:15:59.221Z,17.10
2023-03-25T20:18:28.209Z,17.00
2023-03-25T20:20:56.549Z,17.00
2023-03-25T20:23:24.656Z,16.90
2023-03-25T20:25:53.405Z,16.90
2023-03-25T20:28:23.096Z,17.00
2023-03-25T20:30:53.340Z,16.90
2023-03-25T20:33:21.551Z,17.00
2023-03-25T20:35:49.912Z,17.00
2023-03-25T20:38:18.854Z,17.00
2023-03-25T20:40:47.037Z,17.00
2023-03-25T20:43:15.353Z,16.90
2023-03-25T20:45:44.341Z,16.90
2023-03-25T20:48:13.899Z,16.90
2023-03-25T20:50:42.056Z,16.80
2023-03-25T20:53:10.256Z,16.80
2023-03-25T20:55:38.486Z,16.80
2023-03-25T20:58:08.800Z,16.80
2023-03-25T21:00:37.498Z,16.80
2023-03-25T21:03:06.185Z,16.80
2023-03-25T21:05:36.060Z,16.70
2023-03-25T21:08:04.275Z,16.70
2023-03-25T21:10:32.493Z,16.70
2023-03-25T21:13:00.748Z,16.70
2023-03-25T21:15:30.328Z,16.60
2023-03-25T21:17:58.650Z,16.70
2023-03-25T21:20:28.960Z,16.70
2023-03-25T21:22:59.263Z,16.70
2023-03-25T21:25:34.310Z,16.70
2023-03-25T21:28:03.939Z,16.80
2023-03-25T21:30:32.959Z,16.80
2023-03-25T21:33:01.242Z,16.80
2023-03-25T21:35:29.582Z,16.80
2023-03-25T21:38:01.013Z,16.80
2023-03-25T21:40:39.953Z,16.80
2023-03-25T21:43:08.425Z,16.70
2023-03-25T21:45:36.602Z,16.70
2023-03-25T21:48:05.310Z,16.50
2023-03-25T21:50:34.416Z,16.40
2023-03-25T21:53:05.688Z,16.30
2023-03-25T21:55:35.681Z,16.20
2023-03-25T21:58:03.837Z,16.20
2023-03-25T22:00:32.049Z,16.20
2023-03-25T22:03:00.367Z,16.20
2023-03-25T22:05:32.357Z,16.10
2023-03-25T22:08:00.878Z,16.10
2023-03-25T22:10:30.437Z,16.20
2023-03-25T22:12:58.754Z,16.20
2023-03-25T22:15:27.207Z,16.20
2023-03-25T22:17:55.529Z,16.20
2023-03-25T22:20:23.764Z,16.20
2023-03-25T22:22:53.854Z,16.20
2023-03-25T22:25:22.182Z,16.20
2023-03-25T22:27:51.957Z,16.10
2023-03-25T22:30:20.168Z,16.10
2023-03-25T22:32:48.320Z,16.20
2023-03-25T22:35:17.366Z,16.10
2023-03-25T22:37:46.357Z,15.90
2023-03-25T22:40:15.396Z,15.80
2023-03-25T22:42:43.586Z,15.70
2023-03-25T22:45:13.493Z,15.70
2023-03-25T22:47:41.765Z,15.70
2023-03-25T22:50:11.388Z,15.60
2023-03-25T22:52:42.000Z,15.60
2023-03-25T22:55:11.150Z,15.60
2023-03-25T22:57:39.548Z,15.60
2023-03-25T23:00:12.862Z,15.70
2023-03-25T23:02:42.993Z,15.60
2023-03-25T23:05:11.391Z,15.60
2023-03-25T23:07:39.601Z,15.50
2023-03-25T23:10:09.120Z,15.50
2023-03-25T23:12:37.416Z,15.50
2023-03-25T23:15:06.574Z,15.40
2023-03-25T23:17:35.593Z,15.40
2023-03-25T23:20:08.426Z,15.40
2023-03-25T23:22:36.583Z,15.40
2023-03-25T23:25:05.639Z,15.40
2023-03-25T23:27:35.575Z,15.50
2023-03-25T23:30:05.300Z,15.60
2023-03-25T23:32:34.610Z,15.60
2023-03-25T23:35:04.216Z,15.60
2023-03-25T23:37:34.038Z,15.60
2023-03-25T23:40:02.348Z,15.60
2023-03-25T23:42:34.972Z,15.70
2023-03-25T23:45:04.559Z,15.70
2023-03-25T23:47:32.754Z,15.70
2023-03-25T23:50:02.019Z,15.60
2023-03-25T23:52:33.464Z,15.60
2023-03-25T23:55:01.731Z,15.60
2023-03-25T23:57:30.712Z,15.60
2023-03-25T23:59:59.016Z,15.60
